Time;durP1;ratioP1;P1;durP2;ratioP2;P2;SDS_P1;SDS_P2;PMS_P1;PMS_P2;Temp;Humidity;BMP_temperature;BMP_pressure;BME280_temperature;BME280_humidity;BME280_pressure;Samples;Min_cycle;Max_cycle;Signal;HPM_P1;HPM_P2
2020/05/28 00:05:51;;;;;;;2.19;1.97;;;;;;;19.62;45.96;101818.64;;;;-52
2020/05/28 00:08:31;;;;;;;2.39;1.87;;;;;;;19.61;46.04;101819.02;;;;-52
2020/05/28 00:11:37;;;;;;;2.14;1.94;;;;;;;19.61;46.05;101815.39;;;;-52
2020/05/28 00:14:31;;;;;;;2.10;1.90;;;;;;;19.61;46.01;101818.97;;;;-52
2020/05/28 00:17:31;;;;;;;2.20;2.00;;;;;;;19.60;46.02;101814.55;;;;-52
2020/05/28 00:20:31;;;;;;;2.34;2.14;;;;;;;19.60;46.00;101815.64;;;;-52
2020/05/28 00:23:31;;;;;;;1.99;1.79;;;;;;;19.59;45.99;101815.86;;;;-51
2020/05/28 00:26:31;;;;;;;2.18;1.99;;;;;;;19.59;46.04;101815.08;;;;-52
2020/05/28 00:29:31;;;;;;;2.15;1.96;;;;;;;19.58;46.03;101810.95;;;;-52
2020/05/28 00:32:31;;;;;;;2.17;1.98;;;;;;;19.58;46.00;101807.75;;;;-52
2020/05/28 00:35:31;;;;;;;2.30;2.10;;;;;;;19.58;45.98;101800.04;;;;-51
2020/05/28 00:38:31;;;;;;;2.25;2.08;;;;;;;19.58;46.02;101796.09;;;;-52
2020/05/28 00:41:31;;;;;;;2.13;2.00;;;;;;;19.57;45.97;101790.42;;;;-52
2020/05/28 00:44:31;;;;;;;2.14;1.94;;;;;;;19.56;46.03;101786.34;;;;-52
2020/05/28 00:47:31;;;;;;;2.28;2.06;;;;;;;19.57;45.96;101783.55;;;;-52
2020/05/28 00:50:31;;;;;;;2.10;2.00;;;;;;;19.57;46.06;101777.74;;;;-52
2020/05/28 00:53:31;;;;;;;2.12;2.02;;;;;;;19.56;45.96;101773.27;;;;-52
2020/05/28 00:56:31;;;;;;;2.20;2.00;;;;;;;19.55;45.99;101766.40;;;;-52
2020/05/28 00:59:31;;;;;;;2.23;2.03;;;;;;;19.56;46.00;101768.97;;;;-52
2020/05/28 01:02:31;;;;;;;2.52;2.03;;;;;;;19.55;46.05;101760.47;;;;-52
2020/05/28 01:05:31;;;;;;;3.29;2.01;;;;;;;19.55;46.04;101758.63;;;;-52
2020/05/28 01:08:31;;;;;;;2.27;2.00;;;;;;;19.55;46.03;101757.67;;;;-52
2020/05/28 01:11:31;;;;;;;1.92;1.82;;;;;;;19.55;45.98;101758.86;;;;-52
2020/05/28 01:17:31;;;;;;;2.77;2.00;;;;;;;19.54;46.03;101755.72;;;;-52
2020/05/28 01:20:31;;;;;;;2.09;1.96;;;;;;;19.55;46.02;101759.02;;;;-52
2020/05/28 01:23:31;;;;;;;2.14;1.95;;;;;;;19.55;46.04;101757.67;;;;-52
2020/05/28 01:26:31;;;;;;;2.19;2.00;;;;;;;19.54;46.03;101754.94;;;;-52
2020/05/28 01:29:31;;;;;;;2.38;1.96;;;;;;;19.54;46.05;101757.28;;;;-52
2020/05/28 01:32:37;;;;;;;2.21;2.01;;;;;;;19.53;46.00;101746.42;;;;-52
2020/05/28 01:35:35;;;;;;;2.31;2.11;;;;;;;19.54;46.05;101744.98;;;;-51
2020/05/28 01:38:35;;;;;;;2.27;2.07;;;;;;;19.53;45.99;101736.11;;;;-52
2020/05/28 01:43:14;;;;;;;2.17;1.97;;;;;;;19.52;46.07;101745.87;;;;-51
2020/05/28 01:45:41;;;;;;;2.06;1.95;;;;;;;19.53;46.08;101751.67;;;;-52
2020/05/28 01:48:31;;;;;;;2.31;2.11;;;;;;;19.53;46.04;101759.22;;;;-52
2020/05/28 01:51:31;;;;;;;2.15;1.86;;;;;;;19.52;46.03;101751.57;;;;-52
2020/05/28 01:54:31;;;;;;;2.35;2.15;;;;;;;19.52;46.03;101749.88;;;;-52
2020/05/28 01:57:31;;;;;;;2.22;2.02;;;;;;;19.52;46.09;101747.05;;;;-52
2020/05/28 02:00:40;;;;;;;2.17;2.07;;;;;;;19.52;46.05;101745.75;;;;-53
2020/05/28 02:03:31;;;;;;;2.35;2.15;;;;;;;19.52;46.06;101749.09;;;;-52
2020/05/28 02:06:31;;;;;;;2.10;2.00;;;;;;;19.51;46.07;101746.23;;;;-52
2020/05/28 02:09:31;;;;;;;2.29;2.09;;;;;;;19.50;46.08;101743.66;;;;-52
2020/05/28 02:12:31;;;;;;;2.25;2.05;;;;;;;19.51;46.05;101744.67;;;;-52
2020/05/28 02:15:31;;;;;;;2.18;2.01;;;;;;;19.50;46.06;101745.23;;;;-52
2020/05/28 02:18:31;;;;;;;2.31;2.11;;;;;;;19.51;46.11;101749.75;;;;-52
2020/05/28 02:21:31;;;;;;;2.08;1.98;;;;;;;19.50;46.05;101747.30;;;;-52
2020/05/28 02:24:31;;;;;;;2.28;2.08;;;;;;;19.50;46.08;101752.03;;;;-52
2020/05/28 02:27:31;;;;;;;2.09;1.96;;;;;;;19.50;46.09;101752.77;;;;-52
2020/05/28 02:30:31;;;;;;;2.39;2.19;;;;;;;19.49;46.10;101744.66;;;;-53
2020/05/28 02:33:31;;;;;;;2.30;2.10;;;;;;;19.50;46.09;101746.45;;;;-53
2020/05/28 02:36:31;;;;;;;2.54;2.15;;;;;;;19.50;46.06;101745.72;;;;-53
2020/05/28 02:39:31;;;;;;;2.77;2.10;;;;;;;19.50;46.13;101744.95;;;;-55
2020/05/28 02:45:31;;;;;;;2.29;2.09;;;;;;;19.49;46.12;101744.88;;;;-53
2020/05/28 02:51:33;;;;;;;2.13;1.99;;;;;;;19.49;46.05;101746.56;;;;-54
2020/05/28 02:54:31;;;;;;;2.19;2.00;;;;;;;19.48;46.10;101752.02;;;;-53
2020/05/28 02:57:31;;;;;;;2.23;2.03;;;;;;;19.48;46.12;101755.98;;;;-54
2020/05/28 03:00:31;;;;;;;2.19;2.01;;;;;;;19.48;46.06;101755.14;;;;-53
2020/05/28 03:03:31;;;;;;;2.31;2.12;;;;;;;19.47;46.09;101755.60;;;;-55
2020/05/28 03:06:31;;;;;;;2.64;2.17;;;;;;;19.48;46.07;101753.58;;;;-52
2020/05/28 03:09:31;;;;;;;2.30;2.10;;;;;;;19.47;46.12;101753.23;;;;-53
2020/05/28 03:12:31;;;;;;;2.35;2.15;;;;;;;19.48;46.12;101748.61;;;;-53
2020/05/28 03:15:31;;;;;;;2.03;1.89;;;;;;;19.47;46.06;101749.78;;;;-53
2020/05/28 03:18:31;;;;;;;2.79;2.17;;;;;;;19.47;46.12;101753.02;;;;-53
2020/05/28 03:21:54;;;;;;;2.28;2.08;;;;;;;19.47;46.07;101755.77;;;;-53
2020/05/28 03:24:34;;;;;;;2.31;2.11;;;;;;;19.47;46.12;101758.16;;;;-54
2020/05/28 03:27:31;;;;;;;2.26;2.11;;;;;;;19.47;46.11;101757.26;;;;-53
2020/05/28 03:30:31;;;;;;;2.40;2.20;;;;;;;19.46;46.07;101758.98;;;;-54
2020/05/28 03:33:34;;;;;;;2.47;2.27;;;;;;;19.47;46.07;101768.66;;;;-53
2020/05/28 03:36:31;;;;;;;2.27;2.07;;;;;;;19.47;46.08;101767.53;;;;-55
2020/05/28 03:39:31;;;;;;;2.55;2.35;;;;;;;19.47;46.09;101762.84;;;;-53
2020/05/28 03:42:31;;;;;;;2.47;2.27;;;;;;;19.46;46.05;101756.54;;;;-53
2020/05/28 03:45:31;;;;;;;2.25;2.02;;;;;;;19.46;46.11;101757.55;;;;-53
2020/05/28 03:48:31;;;;;;;2.47;2.27;;;;;;;19.46;46.07;101770.03;;;;-53
2020/05/28 03:51:31;;;;;;;2.10;1.90;;;;;;;19.46;46.07;101763.56;;;;-52
2020/05/28 03:54:31;;;;;;;2.30;2.10;;;;;;;19.46;46.05;101754.91;;;;-54
2020/05/28 03:57:31;;;;;;;2.69;2.10;;;;;;;19.45;46.12;101749.44;;;;-54
2020/05/28 04:00:31;;;;;;;4.50;2.20;;;;;;;19.46;46.11;101747.70;;;;-53
2020/05/28 04:03:31;;;;;;;3.49;2.28;;;;;;;19.45;46.12;101753.80;;;;-53
2020/05/28 04:06:31;;;;;;;2.38;2.10;;;;;;;19.45;46.08;101756.73;;;;-53
2020/05/28 04:09:31;;;;;;;2.27;2.09;;;;;;;19.45;46.03;101767.45;;;;-55
2020/05/28 04:12:31;;;;;;;2.57;2.33;;;;;;;19.46;46.08;101770.43;;;;-53
2020/05/28 04:15:31;;;;;;;2.24;2.10;;;;;;;19.45;46.06;101770.25;;;;-53
2020/05/28 04:18:32;;;;;;;2.53;2.33;;;;;;;19.45;46.06;101777.46;;;;-53
2020/05/28 04:21:31;;;;;;;2.55;2.35;;;;;;;19.45;46.04;101778.91;;;;-53
2020/05/28 04:24:31;;;;;;;2.40;2.20;;;;;;;19.45;46.09;101771.93;;;;-53
2020/05/28 04:27:31;;;;;;;2.75;2.25;;;;;;;19.44;46.02;101765.37;;;;-53
2020/05/28 04:30:31;;;;;;;2.40;2.20;;;;;;;19.45;46.15;101768.41;;;;-53
2020/05/28 04:33:31;;;;;;;2.46;2.23;;;;;;;19.44;46.10;101774.43;;;;-53
2020/05/28 04:36:31;;;;;;;2.78;2.40;;;;;;;19.44;46.16;101769.57;;;;-53
2020/05/28 04:39:31;;;;;;;2.44;2.24;;;;;;;19.43;46.12;101767.44;;;;-53
2020/05/28 04:42:31;;;;;;;2.87;2.31;;;;;;;19.44;46.13;101775.33;;;;-53
2020/05/28 04:48:37;;;;;;;3.26;2.53;;;;;;;19.43;46.12;101789.61;;;;-53
2020/05/28 04:51:33;;;;;;;3.19;2.41;;;;;;;19.43;46.13;101796.31;;;;-53
2020/05/28 04:54:31;;;;;;;2.63;2.43;;;;;;;19.44;46.12;101797.11;;;;-50
2020/05/28 04:57:31;;;;;;;2.50;2.30;;;;;;;19.43;46.10;101799.05;;;;-49
2020/05/28 05:00:31;;;;;;;2.43;2.23;;;;;;;19.43;46.12;101797.20;;;;-50
2020/05/28 05:03:31;;;;;;;4.62;2.62;;;;;;;19.42;46.08;101798.15;;;;-50
2020/05/28 05:06:31;;;;;;;2.55;2.35;;;;;;;19.42;46.15;101801.94;;;;-50
2020/05/28 05:09:31;;;;;;;2.80;2.60;;;;;;;19.41;46.10;101799.98;;;;-49
2020/05/28 05:12:31;;;;;;;2.57;2.37;;;;;;;19.41;46.12;101804.00;;;;-49
2020/05/28 05:15:31;;;;;;;3.12;2.51;;;;;;;19.41;46.08;101806.84;;;;-50
2020/05/28 05:18:31;;;;;;;2.88;2.61;;;;;;;19.42;46.13;101813.12;;;;-49
2020/05/28 05:21:31;;;;;;;3.05;2.45;;;;;;;19.41;46.14;101815.84;;;;-50
2020/05/28 05:24:31;;;;;;;2.91;2.60;;;;;;;19.41;46.11;101818.62;;;;-49
2020/05/28 05:27:31;;;;;;;2.63;2.43;;;;;;;19.41;46.07;101816.41;;;;-49
2020/05/28 05:40:36;;;;;;;2.60;2.40;;;;;;;19.40;46.08;101821.86;;;;-50
2020/05/28 05:43:58;;;;;;;2.98;2.68;;;;;;;19.41;46.02;101826.79;;;;-50
2020/05/28 05:46:40;;;;;;;3.22;2.40;;;;;;;19.40;46.13;101824.53;;;;-50
2020/05/28 05:50:46;;;;;;;3.13;2.60;;;;;;;19.41;46.12;101824.72;;;;-50
2020/05/28 05:57:38;;;;;;;3.05;2.74;;;;;;;19.41;46.15;101823.55;;;;-50
2020/05/28 06:00:51;;;;;;;3.03;2.73;;;;;;;19.41;46.16;101824.33;;;;-49
2020/05/28 06:04:01;;;;;;;2.83;2.63;;;;;;;19.40;46.19;101821.86;;;;-49
2020/05/28 06:06:39;;;;;;;2.69;2.49;;;;;;;19.41;46.25;101819.80;;;;-50
2020/05/28 06:21:45;;;;;;;3.05;2.60;;;;;;;19.42;46.29;101829.81;;;;-50
2020/05/28 06:24:46;;;;;;;2.91;2.63;;;;;;;19.42;46.24;101832.16;;;;-49
2020/05/28 06:30:41;;;;;;;2.59;2.39;;;;;;;19.42;46.25;101832.66;;;;-49
2020/05/28 06:33:55;;;;;;;2.88;2.55;;;;;;;19.41;46.31;101834.82;;;;-49
2020/05/28 06:36:38;;;;;;;2.73;2.50;;;;;;;19.41;46.30;101838.91;;;;-50
2020/05/28 06:39:43;;;;;;;2.90;2.70;;;;;;;19.42;46.27;101844.78;;;;-50
2020/05/28 06:42:48;;;;;;;2.99;2.69;;;;;;;19.42;46.34;101845.78;;;;-50
2020/05/28 06:49:56;;;;;;;2.95;2.65;;;;;;;19.42;46.32;101845.73;;;;-50
2020/05/28 06:52:37;;;;;;;3.07;2.63;;;;;;;19.41;46.36;101848.56;;;;-49
2020/05/28 06:55:46;;;;;;;2.80;2.59;;;;;;;19.42;46.27;101849.92;;;;-50
2020/05/28 06:59:08;;;;;;;3.37;2.48;;;;;;;19.43;46.33;101853.73;;;;-50
2020/05/28 07:05:53;;;;;;;2.68;2.45;;;;;;;19.42;46.32;101851.48;;;;-49
2020/05/28 07:19:35;;;;;;;2.72;2.52;;;;;;;19.43;46.38;101857.80;;;;-50
2020/05/28 07:25:46;;;;;;;2.99;2.41;;;;;;;19.43;46.34;101859.59;;;;-50
2020/05/28 07:28:46;;;;;;;2.53;2.33;;;;;;;19.42;46.43;101854.83;;;;-50
2020/05/28 07:32:06;;;;;;;2.89;2.62;;;;;;;19.43;46.34;101859.98;;;;-49
2020/05/28 07:34:45;;;;;;;2.69;2.49;;;;;;;19.43;46.34;101857.91;;;;-49
2020/05/28 07:38:20;;;;;;;3.65;2.58;;;;;;;19.43;46.37;101859.37;;;;-50
2020/05/28 07:40:46;;;;;;;2.55;2.35;;;;;;;19.43;46.36;101862.09;;;;-50
2020/05/28 07:47:44;;;;;;;2.65;2.45;;;;;;;19.43;46.43;101860.70;;;;-49
2020/05/28 07:53:38;;;;;;;2.63;2.37;;;;;;;19.44;46.41;101866.36;;;;-49
2020/05/28 07:56:44;;;;;;;2.47;2.27;;;;;;;19.43;46.42;101861.59;;;;-50
2020/05/28 08:00:03;;;;;;;2.49;2.29;;;;;;;19.44;46.70;101862.73;;;;-54
2020/05/28 08:02:49;;;;;;;2.81;2.37;;;;;;;19.46;46.62;101863.44;;;;-52
2020/05/28 08:12:33;;;;;;;2.87;2.40;;;;;;;19.51;47.10;101861.69;;;;-52
2020/05/28 08:16:17;;;;;;;3.06;2.27;;;;;;;19.52;47.16;101863.00;;;;-54
2020/05/28 08:31:33;;;;;;;3.28;2.29;;;;;;;19.58;47.02;101865.97;;;;-51
2020/05/28 08:34:37;;;;;;;2.32;2.12;;;;;;;19.60;47.27;101858.17;;;;-50
2020/05/28 08:37:35;;;;;;;7.62;2.19;;;;;;;19.62;47.13;101861.70;;;;-51
2020/05/28 08:40:39;;;;;;;2.56;2.33;;;;;;;19.61;47.05;101859.41;;;;-51
2020/05/28 08:43:35;;;;;;;2.70;2.08;;;;;;;19.61;47.06;101858.86;;;;-51
2020/05/28 08:58:55;;;;;;;2.43;2.19;;;;;;;19.65;47.17;101863.48;;;;-53
2020/05/28 09:18:45;;;;;;;2.35;2.00;;;;;;;19.72;47.20;101850.20;;;;-51
2020/05/28 09:21:41;;;;;;;2.71;2.22;;;;;;;19.73;47.31;101848.19;;;;-52
2020/05/28 09:27:48;;;;;;;3.05;2.03;;;;;;;19.75;47.34;101843.31;;;;-49
2020/05/28 09:33:40;;;;;;;2.65;2.21;;;;;;;19.76;47.15;101842.94;;;;-49
2020/05/28 09:37:16;;;;;;;5.39;2.37;;;;;;;19.77;47.16;101838.75;;;;-48
2020/05/28 09:42:47;;;;;;;2.59;2.13;;;;;;;19.77;46.99;101832.70;;;;-48
2020/05/28 09:49:41;;;;;;;3.31;2.27;;;;;;;19.78;46.99;101827.79;;;;-49
2020/05/28 09:53:31;;;;;;;2.69;2.19;;;;;;;19.77;46.97;101821.70;;;;-49
2020/05/28 09:56:43;;;;;;;3.03;2.19;;;;;;;19.77;46.94;101821.81;;;;-48
2020/05/28 10:02:37;;;;;;;2.42;2.11;;;;;;;19.77;46.91;101817.69;;;;-49
2020/05/28 10:05:45;;;;;;;3.59;2.32;;;;;;;19.78;46.93;101815.91;;;;-49
2020/05/28 10:11:57;;;;;;;3.03;2.09;;;;;;;19.78;46.96;101812.98;;;;-49
2020/05/28 10:15:20;;;;;;;3.69;2.10;;;;;;;19.78;46.85;101815.16;;;;-54
2020/05/28 10:27:54;;;;;;;2.49;2.16;;;;;;;19.76;46.80;101805.48;;;;-51
2020/05/28 10:30:40;;;;;;;2.49;2.07;;;;;;;19.77;46.79;101805.77;;;;-50
2020/05/28 10:33:43;;;;;;;2.21;2.00;;;;;;;19.77;46.86;101799.67;;;;-52
2020/05/28 10:36:42;;;;;;;2.92;2.04;;;;;;;19.76;46.81;101799.45;;;;-51
2020/05/28 10:39:39;;;;;;;2.97;2.10;;;;;;;19.77;46.80;101797.16;;;;-51
2020/05/28 10:42:44;;;;;;;3.33;1.95;;;;;;;19.75;46.82;101787.99;;;;-51
2020/05/28 10:45:42;;;;;;;2.59;1.99;;;;;;;19.76;46.80;101789.96;;;;-50
2020/05/28 10:54:37;;;;;;;2.25;1.93;;;;;;;19.75;46.71;101775.91;;;;-50
2020/05/28 10:58:10;;;;;;;2.93;2.08;;;;;;;19.75;46.75;101778.14;;;;-51
2020/05/28 11:18:55;;;;;;;2.49;2.10;;;;;;;19.74;46.60;101752.60;;;;-51
2020/05/28 11:21:41;;;;;;;2.22;1.93;;;;;;;19.75;46.63;101751.83;;;;-50
2020/05/28 11:24:40;;;;;;;2.68;2.10;;;;;;;19.74;46.56;101746.35;;;;-50
2020/05/28 11:27:41;;;;;;;2.98;1.90;;;;;;;19.74;46.54;101740.20;;;;-52
2020/05/28 11:30:43;;;;;;;2.24;1.91;;;;;;;19.75;46.57;101749.48;;;;-50
2020/05/28 11:33:41;;;;;;;5.03;2.01;;;;;;;19.74;46.56;101742.15;;;;-52
2020/05/28 11:39:37;;;;;;;2.02;1.79;;;;;;;19.73;46.49;101734.54;;;;-52
2020/05/28 11:43:19;;;;;;;2.29;2.00;;;;;;;19.73;46.56;101734.81;;;;-51
2020/05/28 11:45:36;;;;;;;2.53;2.03;;;;;;;19.73;46.50;101727.61;;;;-52
2020/05/28 11:48:42;;;;;;;2.35;1.99;;;;;;;19.73;46.49;101724.48;;;;-52
2020/05/28 11:52:23;;;;;;;2.30;2.09;;;;;;;19.73;46.46;101725.94;;;;-50
2020/05/28 11:55:31;;;;;;;2.22;2.02;;;;;;;19.72;46.43;101719.67;;;;-51
2020/05/28 11:58:31;;;;;;;2.54;1.89;;;;;;;19.73;46.49;101725.77;;;;-51
2020/05/28 12:01:33;;;;;;;2.14;1.94;;;;;;;19.74;46.49;101717.91;;;;-50
2020/05/28 12:04:59;;;;;;;2.13;1.93;;;;;;;19.72;46.38;101712.64;;;;-50
2020/05/28 12:07:41;;;;;;;3.13;2.01;;;;;;;19.75;46.49;101710.13;;;;-51
2020/05/28 12:10:45;;;;;;;2.15;1.95;;;;;;;19.78;46.61;101712.06;;;;-54
2020/05/28 12:13:39;;;;;;;2.93;2.08;;;;;;;19.80;46.65;101706.38;;;;-52
2020/05/28 12:16:56;;;;;;;5.07;1.97;;;;;;;19.82;46.79;101702.83;;;;-54
2020/05/28 12:19:40;;;;;;;5.57;2.19;;;;;;;19.84;46.93;101705.98;;;;-50
2020/05/28 12:22:38;;;;;;;3.35;2.18;;;;;;;19.86;47.00;101699.88;;;;-54
2020/05/28 12:25:50;;;;;;;3.67;2.10;;;;;;;19.87;47.08;101692.81;;;;-53
2020/05/28 12:28:40;;;;;;;5.41;1.99;;;;;;;19.88;47.08;101699.25;;;;-51
2020/05/28 12:31:46;;;;;;;3.43;2.02;;;;;;;19.89;47.18;101691.31;;;;-52
2020/05/28 12:34:42;;;;;;;6.19;2.31;;;;;;;19.91;46.97;101697.52;;;;-53
2020/05/28 12:40:36;;;;;;;20.89;2.35;;;;;;;19.95;47.07;101697.23;;;;-51
2020/05/28 12:43:46;;;;;;;5.45;2.35;;;;;;;19.96;46.98;101687.45;;;;-55
2020/05/28 12:50:41;;;;;;;5.87;2.15;;;;;;;20.00;47.04;101689.57;;;;-54
2020/05/28 12:53:57;;;;;;;8.13;2.20;;;;;;;20.02;47.29;101691.45;;;;-53
2020/05/28 12:56:43;;;;;;;10.65;2.30;;;;;;;20.03;47.14;101686.35;;;;-52
2020/05/28 12:59:37;;;;;;;12.06;2.65;;;;;;;20.04;47.18;101681.55;;;;-51
2020/05/28 13:10:36;;;;;;;14.87;2.40;;;;;;;20.09;47.23;101677.45;;;;-53
2020/05/28 13:13:51;;;;;;;9.56;2.23;;;;;;;20.09;46.92;101672.63;;;;-56
2020/05/28 13:16:55;;;;;;;12.94;2.52;;;;;;;20.08;46.83;101670.69;;;;-55
2020/05/28 13:20:15;;;;;;;9.19;2.27;;;;;;;20.06;46.80;101671.83;;;;-55
2020/05/28 13:22:40;;;;;;;7.19;2.05;;;;;;;20.04;46.80;101667.42;;;;-55
2020/05/28 13:25:43;;;;;;;4.84;2.25;;;;;;;20.04;46.66;101669.02;;;;-55
2020/05/28 13:31:41;;;;;;;5.33;2.07;;;;;;;20.03;46.63;101666.91;;;;-56
2020/05/28 13:34:41;;;;;;;5.47;2.32;;;;;;;20.02;46.64;101657.05;;;;-56
2020/05/28 13:48:37;;;;;;;4.10;2.11;;;;;;;19.98;46.47;101641.59;;;;-55
2020/05/28 13:54:51;;;;;;;5.49;2.01;;;;;;;19.97;46.42;101644.25;;;;-55
2020/05/28 13:58:57;;;;;;;4.50;2.18;;;;;;;19.96;46.40;101645.25;;;;-55
2020/05/28 14:06:52;;;;;;;5.02;2.03;;;;;;;19.95;46.30;101642.72;;;;-55
2020/05/28 14:13:43;;;;;;;4.17;2.23;;;;;;;19.94;46.27;101645.06;;;;-55
2020/05/28 14:24:49;;;;;;;2.47;1.92;;;;;;;19.93;46.21;101618.12;;;;-55
2020/05/28 14:27:55;;;;;;;4.24;2.01;;;;;;;19.93;46.19;101617.96;;;;-55
2020/05/28 14:30:47;;;;;;;2.38;1.75;;;;;;;19.92;46.17;101610.02;;;;-55
2020/05/28 14:38:48;;;;;;;2.39;1.78;;;;;;;19.92;46.10;101602.52;;;;-56
2020/05/28 14:46:24;;;;;;;2.25;1.65;;;;;;;19.91;46.06;101600.45;;;;-55
2020/05/28 15:03:45;;;;;;;2.35;1.69;;;;;;;19.89;46.01;101592.09;;;;-54
2020/05/28 15:06:31;;;;;;;1.87;1.70;;;;;;;19.88;46.01;101589.81;;;;-54
2020/05/28 15:09:36;;;;;;;2.35;1.77;;;;;;;19.88;45.97;101589.14;;;;-53
2020/05/28 15:15:39;;;;;;;2.29;1.76;;;;;;;19.87;46.00;101589.41;;;;-53
2020/05/28 15:19:38;;;;;;;1.70;1.60;;;;;;;19.88;45.97;101594.12;;;;-53
2020/05/28 15:22:45;;;;;;;2.81;1.67;;;;;;;19.87;45.96;101585.17;;;;-53
2020/05/28 15:25:42;;;;;;;2.41;1.65;;;;;;;19.87;45.89;101587.30;;;;-53
2020/05/28 15:28:48;;;;;;;2.02;1.79;;;;;;;19.88;45.91;101578.63;;;;-53
2020/05/28 15:34:38;;;;;;;2.57;1.78;;;;;;;19.87;45.90;101582.83;;;;-53
2020/05/28 15:37:51;;;;;;;2.58;1.55;;;;;;;19.87;45.89;101579.14;;;;-53
2020/05/28 15:43:50;;;;;;;2.10;1.59;;;;;;;19.86;45.89;101575.48;;;;-53
2020/05/28 15:46:37;;;;;;;1.87;1.60;;;;;;;19.86;45.80;101575.90;;;;-53
2020/05/28 15:49:58;;;;;;;2.25;1.71;;;;;;;19.85;45.86;101562.64;;;;-53
2020/05/28 15:56:11;;;;;;;1.77;1.60;;;;;;;19.85;45.82;101562.86;;;;-53
2020/05/28 15:58:38;;;;;;;1.82;1.60;;;;;;;19.85;45.80;101558.11;;;;-53
2020/05/28 16:04:41;;;;;;;3.83;1.73;;;;;;;19.85;45.75;101560.30;;;;-52
2020/05/28 16:07:37;;;;;;;1.61;1.51;;;;;;;19.87;45.82;101568.29;;;;-52
2020/05/28 16:10:42;;;;;;;2.89;1.66;;;;;;;19.89;45.92;101560.91;;;;-50
2020/05/28 16:13:42;;;;;;;2.26;1.52;;;;;;;19.90;45.91;101563.83;;;;-51
2020/05/28 16:16:39;;;;;;;8.21;1.83;;;;;;;19.95;45.69;101564.42;;;;-46
2020/05/28 16:22:45;;;;;;;5.89;1.85;;;;;;;19.92;45.91;101558.87;;;;-45
2020/05/28 16:25:35;;;;;;;6.65;2.06;;;;;;;19.93;45.90;101562.84;;;;-49
2020/05/28 16:28:31;;;;;;;2.83;1.53;;;;;;;19.95;45.95;101564.77;;;;-51
2020/05/28 16:42:55;;;;;;;2.21;1.60;;;;;;;19.97;46.02;101558.16;;;;-51
2020/05/28 16:46:02;;;;;;;4.53;1.75;;;;;;;19.98;45.96;101554.72;;;;-48
2020/05/28 17:09:38;;;;;;;2.28;1.50;;;;;;;20.03;45.89;101549.73;;;;-50
2020/05/28 17:12:40;;;;;;;3.29;1.60;;;;;;;20.03;45.89;101548.89;;;;-50
2020/05/28 17:15:58;;;;;;;2.62;1.52;;;;;;;20.04;45.88;101552.53;;;;-49
2020/05/28 17:21:39;;;;;;;2.82;1.49;;;;;;;20.05;45.85;101559.30;;;;-46
2020/05/28 17:27:36;;;;;;;1.85;1.40;;;;;;;20.05;45.81;101551.25;;;;-52
2020/05/28 17:30:36;;;;;;;1.75;1.40;;;;;;;20.07;45.67;101557.25;;;;-51
2020/05/28 17:33:52;;;;;;;6.05;1.91;;;;;;;20.05;45.60;101553.59;;;;-50
2020/05/28 17:38:02;;;;;;;3.41;1.40;;;;;;;20.03;45.64;101553.83;;;;-51
2020/05/28 17:40:55;;;;;;;2.30;1.41;;;;;;;20.03;45.63;101551.69;;;;-50
2020/05/28 17:44:21;;;;;;;2.57;1.40;;;;;;;20.02;45.60;101550.91;;;;-50
2020/05/28 17:48:53;;;;;;;2.39;1.40;;;;;;;20.01;45.54;101550.95;;;;-50
2020/05/28 17:51:47;;;;;;;2.13;1.39;;;;;;;20.01;45.50;101551.91;;;;-50
2020/05/28 18:00:38;;;;;;;1.72;1.40;;;;;;;19.99;45.44;101560.22;;;;-51
2020/05/28 18:03:38;;;;;;;2.69;1.45;;;;;;;19.99;45.39;101561.34;;;;-50
2020/05/28 18:06:58;;;;;;;2.72;1.42;;;;;;;19.98;45.38;101563.88;;;;-50
2020/05/28 18:09:59;;;;;;;1.46;1.36;;;;;;;19.97;45.35;101560.01;;;;-51
2020/05/28 18:12:43;;;;;;;1.55;1.39;;;;;;;19.97;45.35;101556.05;;;;-50
2020/05/28 18:15:37;;;;;;;1.57;1.33;;;;;;;19.96;45.33;101556.26;;;;-51
2020/05/28 18:18:33;;;;;;;1.62;1.38;;;;;;;19.96;45.32;101559.73;;;;-51
2020/05/28 18:21:41;;;;;;;1.60;1.37;;;;;;;19.95;45.26;101553.30;;;;-50
2020/05/28 18:27:47;;;;;;;1.94;1.29;;;;;;;19.96;45.29;101560.91;;;;-50
2020/05/28 18:35:42;;;;;;;1.84;1.41;;;;;;;19.93;45.22;101553.56;;;;-51
2020/05/28 18:42:16;;;;;;;1.49;1.28;;;;;;;19.94;45.23;101562.52;;;;-51
2020/05/28 18:44:36;;;;;;;1.78;1.31;;;;;;;19.94;45.23;101564.75;;;;-50
2020/05/28 18:55:16;;;;;;;1.50;1.30;;;;;;;19.92;45.26;101566.77;;;;-49
2020/05/28 19:08:10;;;;;;;1.42;1.29;;;;;;;19.90;45.22;101569.64;;;;-49
2020/05/28 19:10:39;;;;;;;1.30;1.20;;;;;;;19.90;45.21;101569.37;;;;-49
2020/05/28 19:13:39;;;;;;;2.19;1.30;;;;;;;19.90;45.21;101571.05;;;;-49
2020/05/28 19:24:48;;;;;;;1.23;1.13;;;;;;;19.90;45.15;101586.08;;;;-50
2020/05/28 19:29:22;;;;;;;1.48;1.23;;;;;;;19.90;45.12;101587.92;;;;-50
2020/05/28 19:32:45;;;;;;;1.32;1.22;;;;;;;19.90;45.13;101593.34;;;;-51
2020/05/28 19:39:41;;;;;;;1.93;1.43;;;;;;;19.90;45.11;101597.03;;;;-51
2020/05/28 19:42:37;;;;;;;2.49;1.51;;;;;;;19.90;45.05;101595.84;;;;-50
2020/05/28 19:45:49;;;;;;;1.77;1.58;;;;;;;19.90;45.07;101604.73;;;;-50
2020/05/28 20:01:16;;;;;;;4.08;1.98;;;;;;;19.93;45.17;101616.16;;;;-48
2020/05/28 20:04:33;;;;;;;2.09;1.79;;;;;;;19.93;45.14;101620.30;;;;-49
2020/05/28 20:07:04;;;;;;;2.60;1.86;;;;;;;19.94;45.20;101622.22;;;;-49
2020/05/28 20:10:33;;;;;;;4.17;2.21;;;;;;;19.92;45.21;101621.91;;;;-49
2020/05/28 20:13:11;;;;;;;2.75;1.91;;;;;;;19.91;45.19;101623.53;;;;-50
2020/05/28 20:16:16;;;;;;;3.15;1.75;;;;;;;19.91;45.25;101629.61;;;;-49
2020/05/28 20:19:12;;;;;;;2.57;1.93;;;;;;;19.90;45.25;101628.45;;;;-49
2020/05/28 20:22:56;;;;;;;2.38;1.81;;;;;;;19.91;45.12;101629.34;;;;-49
2020/05/28 20:31:10;;;;;;;3.06;1.83;;;;;;;19.89;45.02;101628.48;;;;-49
2020/05/28 20:45:02;;;;;;;1.90;1.72;;;;;;;19.85;45.11;101628.92;;;;-48
2020/05/28 20:48:07;;;;;;;2.78;1.99;;;;;;;19.85;45.15;101631.60;;;;-48
2020/05/28 20:54:08;;;;;;;2.29;1.77;;;;;;;19.84;45.13;101629.92;;;;-50
2020/05/28 20:57:14;;;;;;;3.81;1.79;;;;;;;19.83;45.19;101630.47;;;;-50
2020/05/28 21:00:00;;;;;;;3.47;1.84;;;;;;;19.83;45.14;101631.81;;;;-50
2020/05/28 21:02:56;;;;;;;2.85;1.83;;;;;;;19.83;45.12;101632.47;;;;-50
2020/05/28 21:09:59;;;;;;;2.99;1.99;;;;;;;19.82;45.15;101631.52;;;;-50
2020/05/28 21:12:56;;;;;;;2.55;1.71;;;;;;;19.82;45.17;101632.08;;;;-50
2020/05/28 21:15:57;;;;;;;2.29;1.80;;;;;;;19.81;45.09;101631.78;;;;-50
2020/05/28 21:22:05;;;;;;;2.71;1.70;;;;;;;19.80;45.12;101633.45;;;;-50
2020/05/28 21:24:57;;;;;;;2.44;1.91;;;;;;;19.80;45.12;101638.83;;;;-50
2020/05/28 21:30:57;;;;;;;2.31;1.79;;;;;;;19.78;45.16;101637.31;;;;-50
2020/05/28 21:33:53;;;;;;;2.47;1.61;;;;;;;19.78;45.07;101638.82;;;;-52
2020/05/28 21:36:51;;;;;;;1.85;1.71;;;;;;;19.77;45.14;101638.09;;;;-52
2020/05/28 21:39:51;;;;;;;2.65;1.65;;;;;;;19.78;45.11;101643.23;;;;-52
2020/05/28 21:46:07;;;;;;;2.05;1.70;;;;;;;19.76;45.09;101645.30;;;;-52
2020/05/28 21:48:59;;;;;;;2.43;1.71;;;;;;;19.76;45.04;101650.83;;;;-54
2020/05/28 21:51:57;;;;;;;2.34;1.60;;;;;;;19.76;45.04;101650.31;;;;-52
2020/05/28 22:10:31;;;;;;;2.71;1.66;;;;;;;19.73;44.98;101652.18;;;;-52
2020/05/28 22:13:41;;;;;;;2.32;1.69;;;;;;;19.72;44.96;101647.82;;;;-52
2020/05/28 22:16:02;;;;;;;2.01;1.57;;;;;;;19.73;44.95;101654.14;;;;-52
2020/05/28 22:18:54;;;;;;;1.91;1.57;;;;;;;19.72;44.94;101650.23;;;;-52
2020/05/28 22:21:51;;;;;;;2.15;1.56;;;;;;;19.72;44.99;101652.47;;;;-52
2020/05/28 22:27:51;;;;;;;2.01;1.49;;;;;;;19.71;44.95;101642.45;;;;-53
2020/05/28 22:34:33;;;;;;;1.96;1.50;;;;;;;19.70;44.89;101645.45;;;;-51
2020/05/28 22:39:54;;;;;;;2.14;1.63;;;;;;;19.70;44.92;101643.84;;;;-51
2020/05/28 22:42:51;;;;;;;1.89;1.46;;;;;;;19.69;44.89;101641.88;;;;-51
2020/05/28 22:45:51;;;;;;;2.41;1.55;;;;;;;19.69;44.78;101637.36;;;;-52
2020/05/28 22:48:51;;;;;;;2.03;1.57;;;;;;;19.68;44.83;101637.45;;;;-52
2020/05/28 22:51:51;;;;;;;1.57;1.42;;;;;;;19.68;44.82;101637.52;;;;-52
2020/05/28 22:54:51;;;;;;;1.72;1.51;;;;;;;19.68;44.84;101638.47;;;;-52
2020/05/28 22:57:51;;;;;;;1.87;1.55;;;;;;;19.67;44.87;101639.63;;;;-52
2020/05/28 23:00:51;;;;;;;1.60;1.50;;;;;;;19.67;44.85;101639.57;;;;-52
2020/05/28 23:03:51;;;;;;;1.53;1.43;;;;;;;19.66;44.85;101638.16;;;;-52
2020/05/28 23:06:51;;;;;;;1.58;1.41;;;;;;;19.66;44.83;101640.41;;;;-52
2020/05/28 23:09:51;;;;;;;2.18;1.38;;;;;;;19.66;44.89;101642.48;;;;-53
2020/05/28 23:12:51;;;;;;;1.80;1.53;;;;;;;19.65;44.84;101638.22;;;;-52
2020/05/28 23:15:51;;;;;;;1.68;1.52;;;;;;;19.66;44.78;101640.39;;;;-51
2020/05/28 23:19:10;;;;;;;2.62;1.47;;;;;;;19.65;44.85;101636.05;;;;-52
2020/05/28 23:21:51;;;;;;;1.87;1.49;;;;;;;19.65;44.80;101637.55;;;;-52
2020/05/28 23:24:51;;;;;;;1.57;1.42;;;;;;;19.65;44.90;101637.81;;;;-53
2020/05/28 23:27:51;;;;;;;1.77;1.39;;;;;;;19.64;44.84;101635.42;;;;-52
2020/05/28 23:30:51;;;;;;;1.84;1.49;;;;;;;19.64;44.81;101635.41;;;;-52
2020/05/28 23:33:51;;;;;;;1.63;1.30;;;;;;;19.64;44.77;101636.93;;;;-52
2020/05/28 23:39:51;;;;;;;2.61;1.37;;;;;;;19.63;44.87;101632.17;;;;-52
2020/05/28 23:42:52;;;;;;;1.71;1.44;;;;;;;19.63;44.80;101631.34;;;;-52
2020/05/28 23:45:57;;;;;;;1.46;1.34;;;;;;;19.63;44.82;101631.39;;;;-53
2020/05/28 23:51:59;;;;;;;1.58;1.39;;;;;;;19.62;44.77;101634.13;;;;-52
2020/05/28 23:55:04;;;;;;;1.50;1.40;;;;;;;19.62;44.76;101635.41;;;;-53
2020/05/28 23:57:51;;;;;;;1.40;1.30;;;;;;;19.62;44.78;101637.25;;;;-52
